createdAt,value
2022-11-13T00:01:48.365Z,19.25
2022-11-13T00:04:15.385Z,18.40
2022-11-13T00:06:42.509Z,17.25
2022-11-13T00:09:11.037Z,17.27
2022-11-13T00:11:38.361Z,18.65
2022-11-13T00:14:05.464Z,16.63
2022-11-13T00:16:32.557Z,18.73
2022-11-13T00:18:59.546Z,17.80
2022-11-13T00:21:30.262Z,18.63
2022-11-13T00:23:57.324Z,19.00
2022-11-13T00:26:25.659Z,18.55
2022-11-13T00:28:56.247Z,17.73
2022-11-13T00:31:23.297Z,17.88
2022-11-13T00:34:25.957Z,17.88
2022-11-13T00:36:37.814Z,17.42
2022-11-13T00:39:04.822Z,17.23
2022-11-13T00:41:31.801Z,18.05
2022-11-13T00:43:58.820Z,16.50
2022-11-13T00:46:25.896Z,19.40
2022-11-13T00:48:52.870Z,17.25
2022-11-13T00:51:19.932Z,16.63
2022-11-13T00:53:46.959Z,18.00
2022-11-13T00:56:14.086Z,17.10
2022-11-13T00:58:41.099Z,15.05
2022-11-13T01:01:10.211Z,16.83
2022-11-13T01:03:37.433Z,15.75
2022-11-13T01:06:16.747Z,15.50
2022-11-13T01:08:43.759Z,13.77
2022-11-13T01:11:12.358Z,14.82
2022-11-13T01:13:40.382Z,12.88
2022-11-13T01:16:08.738Z,14.60
2022-11-13T01:18:36.274Z,13.70
2022-11-13T01:21:07.352Z,13.52
2022-11-13T01:23:34.562Z,13.82
2022-11-13T01:26:05.680Z,13.82
2022-11-13T01:28:32.849Z,14.75
2022-11-13T01:30:59.860Z,13.20
2022-11-13T01:33:26.868Z,13.85
2022-11-13T01:35:53.877Z,14.10
2022-11-13T01:38:20.896Z,11.98
2022-11-13T01:40:48.360Z,12.70
2022-11-13T01:43:24.097Z,13.63
2022-11-13T01:46:06.164Z,12.63
2022-11-13T01:48:36.471Z,13.20
2022-11-13T01:51:05.171Z,13.75
2022-11-13T01:53:32.242Z,12.20
2022-11-13T01:55:59.861Z,13.70
2022-11-13T01:58:27.192Z,13.07
2022-11-13T02:00:54.469Z,14.63
2022-11-13T02:03:21.491Z,13.52
2022-11-13T02:05:48.529Z,13.93
2022-11-13T02:08:15.578Z,12.88
2022-11-13T02:10:42.667Z,13.00
2022-11-13T02:13:10.610Z,12.68
2022-11-13T02:15:37.941Z,13.40
2022-11-13T02:18:04.970Z,13.07
2022-11-13T02:20:36.012Z,13.13
2022-11-13T02:23:09.680Z,13.13
2022-11-13T02:25:37.982Z,13.63
2022-11-13T02:28:05.027Z,13.38
2022-11-13T02:30:34.855Z,13.27
2022-11-13T02:33:01.995Z,12.82
2022-11-13T02:35:31.796Z,14.18
2022-11-13T02:38:00.029Z,13.10
2022-11-13T02:40:27.706Z,13.10
2022-11-13T02:42:54.941Z,12.43
2022-11-13T02:45:22.291Z,13.02
2022-11-13T02:47:49.699Z,12.93
2022-11-13T02:50:18.100Z,12.55
2022-11-13T02:52:45.362Z,11.88
2022-11-13T02:55:12.476Z,12.57
2022-11-13T02:57:39.479Z,11.90
2022-11-13T03:00:10.690Z,12.80
2022-11-13T03:02:40.911Z,13.00
2022-11-13T03:05:12.858Z,13.15
2022-11-13T03:07:40.544Z,13.25
2022-11-13T03:10:07.910Z,11.63
2022-11-13T03:12:35.265Z,12.05
2022-11-13T03:15:02.282Z,12.80
2022-11-13T03:17:32.467Z,13.25
2022-11-13T03:19:59.565Z,12.38
2022-11-13T03:22:26.763Z,12.68
2022-11-13T03:24:53.780Z,12.98
2022-11-13T03:27:20.909Z,13.23
2022-11-13T03:29:47.980Z,13.95
2022-11-13T03:32:15.039Z,12.00
2022-11-13T03:34:42.708Z,12.40
2022-11-13T03:37:09.742Z,13.05
2022-11-13T03:39:36.749Z,11.70
2022-11-13T03:42:03.764Z,12.93
2022-11-13T03:44:30.765Z,12.88
2022-11-13T03:46:57.785Z,11.30
2022-11-13T03:49:24.799Z,11.40
2022-11-13T03:51:51.803Z,11.48
2022-11-13T03:54:18.828Z,12.88
2022-11-13T03:56:45.817Z,11.25
2022-11-13T03:59:12.818Z,10.77
2022-11-13T04:01:39.845Z,11.23
2022-11-13T04:04:06.918Z,11.23
2022-11-13T04:06:33.926Z,11.02
2022-11-13T04:09:00.982Z,12.15
2022-11-13T04:11:28.003Z,11.40
2022-11-13T04:13:55.030Z,10.20
2022-11-13T04:16:22.055Z,10.23
2022-11-13T04:18:49.036Z,11.23
2022-11-13T04:21:16.013Z,10.20
2022-11-13T04:23:43.025Z,9.98
2022-11-13T04:26:10.079Z,10.30
2022-11-13T04:28:37.185Z,8.52
2022-11-13T04:31:04.259Z,10.38
2022-11-13T04:33:31.248Z,8.88
2022-11-13T04:35:58.239Z,8.10
2022-11-13T04:38:25.379Z,9.32
2022-11-13T04:41:12.644Z,9.40
2022-11-13T04:43:39.709Z,8.50
2022-11-13T04:46:06.706Z,8.10
2022-11-13T04:48:33.853Z,8.20
2022-11-13T04:51:00.899Z,8.43
2022-11-13T04:53:27.952Z,7.40
2022-11-13T04:55:55.010Z,8.05
2022-11-13T04:58:21.997Z,8.13
2022-11-13T05:00:49.004Z,8.02
2022-11-13T05:03:16.021Z,7.97
2022-11-13T05:05:43.198Z,7.68
2022-11-13T05:08:10.615Z,7.28
2022-11-13T05:10:38.015Z,7.80
2022-11-13T05:13:05.020Z,7.90
2022-11-13T05:15:32.023Z,7.53
2022-11-13T05:17:59.106Z,8.85
2022-11-13T05:20:26.146Z,8.02
2022-11-13T05:22:53.191Z,6.47
2022-11-13T05:25:20.169Z,7.60
2022-11-13T05:27:47.174Z,7.28
2022-11-13T05:30:14.253Z,8.05
2022-11-13T05:32:41.298Z,7.57
2022-11-13T05:35:08.464Z,8.10
2022-11-13T05:37:35.477Z,7.28
2022-11-13T05:40:02.544Z,7.03
2022-11-13T05:42:29.611Z,8.63
2022-11-13T05:44:56.708Z,8.25
2022-11-13T05:47:23.682Z,7.55
2022-11-13T05:49:50.703Z,7.45
2022-11-13T05:52:17.700Z,6.85
2022-11-13T05:54:44.694Z,6.32
2022-11-13T05:57:11.711Z,7.38
2022-11-13T05:59:38.818Z,9.15
2022-11-13T06:02:05.865Z,7.75
2022-11-13T06:04:32.909Z,7.68
2022-11-13T06:06:59.972Z,8.05
2022-11-13T06:09:26.986Z,8.07
2022-11-13T06:11:53.956Z,6.65
2022-11-13T06:14:21.005Z,7.82
2022-11-13T06:16:48.000Z,7.63
2022-11-13T06:19:15.117Z,7.25
2022-11-13T06:21:42.346Z,7.43
2022-11-13T06:24:11.712Z,7.53
2022-11-13T06:26:39.105Z,6.55
2022-11-13T06:29:07.338Z,7.43
2022-11-13T06:31:35.598Z,7.80
2022-11-13T06:34:03.137Z,5.82
2022-11-13T06:36:34.373Z,6.65
2022-11-13T06:39:01.462Z,6.32
2022-11-13T06:41:31.041Z,6.55
2022-11-13T06:44:02.607Z,6.40
2022-11-13T06:46:30.842Z,6.95
2022-11-13T06:48:59.054Z,6.55
2022-11-13T06:51:28.027Z,7.47
2022-11-13T06:53:55.229Z,6.55
2022-11-13T06:56:22.537Z,7.75
2022-11-13T06:58:49.594Z,7.28
2022-11-13T07:01:18.107Z,7.20
2022-11-13T07:03:45.212Z,7.70
2022-11-13T07:06:14.926Z,7.93
2022-11-13T07:08:42.505Z,7.28
2022-11-13T07:11:15.385Z,7.53
2022-11-13T07:13:42.886Z,8.70
2022-11-13T07:16:17.114Z,8.38
2022-11-13T07:18:45.337Z,8.45
2022-11-13T07:21:13.561Z,8.15
2022-11-13T07:23:43.093Z,7.47
2022-11-13T07:26:13.041Z,8.45
2022-11-13T07:28:40.496Z,8.35
2022-11-13T07:31:08.081Z,8.95
2022-11-13T07:33:35.361Z,8.73
2022-11-13T07:36:02.387Z,8.85
2022-11-13T07:38:29.770Z,7.72
2022-11-13T07:40:58.885Z,8.75
2022-11-13T07:43:26.155Z,8.18
2022-11-13T07:45:54.611Z,10.15
2022-11-13T07:48:24.959Z,10.45
2022-11-13T07:50:52.113Z,9.95
2022-11-13T07:53:19.665Z,9.55
2022-11-13T07:55:46.792Z,9.60
2022-11-13T07:58:14.190Z,9.48
2022-11-13T08:00:41.274Z,10.15
2022-11-13T08:03:09.463Z,9.55
2022-11-13T08:05:36.550Z,9.55
2022-11-13T08:08:03.591Z,8.82
2022-11-13T08:10:31.045Z,10.43
2022-11-13T08:13:02.219Z,11.10
2022-11-13T08:15:29.714Z,8.88
2022-11-13T08:18:00.842Z,11.40
2022-11-13T08:20:28.991Z,9.60
2022-11-13T08:22:59.706Z,8.90
2022-11-13T08:25:26.940Z,9.45
2022-11-13T08:27:54.473Z,9.52
2022-11-13T08:30:22.004Z,9.50
2022-11-13T08:32:49.286Z,9.45
2022-11-13T08:35:19.521Z,10.27
2022-11-13T08:37:47.600Z,9.90
2022-11-13T08:40:14.804Z,10.98
2022-11-13T08:42:41.811Z,11.10
2022-11-13T08:45:09.226Z,11.05
2022-11-13T08:47:36.609Z,10.52
2022-11-13T08:50:04.051Z,11.35
2022-11-13T08:52:31.037Z,10.82
2022-11-13T08:54:58.270Z,12.13
2022-11-13T08:57:25.336Z,13.60
2022-11-13T08:59:52.476Z,12.85
2022-11-13T09:02:19.478Z,13.55
2022-11-13T09:04:46.572Z,14.15
2022-11-13T09:07:13.761Z,14.38
2022-11-13T09:09:40.793Z,15.00
2022-11-13T09:12:08.162Z,14.80
2022-11-13T09:14:35.884Z,15.40
2022-11-13T09:17:02.963Z,15.50
2022-11-13T09:19:29.969Z,16.63
2022-11-13T09:21:57.037Z,15.90
2022-11-13T09:24:24.060Z,15.68
2022-11-13T09:26:51.304Z,15.32
2022-11-13T09:29:18.313Z,15.85
2022-11-13T09:31:45.484Z,15.07
2022-11-13T09:34:12.579Z,15.57
2022-11-13T09:36:39.566Z,15.15
2022-11-13T09:39:06.758Z,15.02
2022-11-13T09:41:37.937Z,15.10
2022-11-13T09:44:07.273Z,14.15
2022-11-13T09:46:34.404Z,14.20
2022-11-13T09:49:07.616Z,13.10
2022-11-13T09:51:37.190Z,13.75
2022-11-13T09:54:08.393Z,12.95
2022-11-13T09:56:38.606Z,13.63
2022-11-13T09:59:22.386Z,13.27
2022-11-13T10:01:52.000Z,15.68
2022-11-13T10:04:22.517Z,14.13
2022-11-13T10:07:22.038Z,13.70
2022-11-13T10:09:54.967Z,15.43
2022-11-13T10:12:22.597Z,10.98
2022-11-13T10:14:51.773Z,15.57
2022-11-13T10:17:24.774Z,14.85
2022-11-13T10:19:55.994Z,13.57
2022-11-13T10:22:34.743Z,13.15
2022-11-13T10:25:25.313Z,14.15
2022-11-13T10:27:55.477Z,14.52
2022-11-13T10:30:22.589Z,13.98
2022-11-13T10:32:49.662Z,14.82
2022-11-13T10:35:28.794Z,12.93
2022-11-13T10:38:06.596Z,12.80
2022-11-13T10:40:38.715Z,12.50
2022-11-13T10:43:07.364Z,12.93
2022-11-13T10:45:34.483Z,11.98
2022-11-13T10:48:04.644Z,11.65
2022-11-13T10:50:33.132Z,12.90
2022-11-13T10:53:00.158Z,12.80
2022-11-13T10:55:27.469Z,11.75
2022-11-13T10:57:58.811Z,12.25
2022-11-13T11:00:30.621Z,12.30
2022-11-13T11:02:57.907Z,11.95
2022-11-13T11:05:28.824Z,12.60
2022-11-13T11:07:57.151Z,11.35
2022-11-13T11:10:35.897Z,12.50
2022-11-13T11:13:07.106Z,11.88
2022-11-13T11:15:49.369Z,10.77
2022-11-13T11:18:19.173Z,11.32
2022-11-13T11:20:49.604Z,10.68
2022-11-13T11:23:26.268Z,10.95
2022-11-13T11:25:57.838Z,11.55
2022-11-13T11:28:24.899Z,10.57
2022-11-13T11:30:53.847Z,11.05
2022-11-13T11:33:23.865Z,11.18
2022-11-13T11:35:54.533Z,9.73
2022-11-13T11:38:33.852Z,10.20
2022-11-13T11:41:15.004Z,9.52
2022-11-13T11:43:52.227Z,9.48
2022-11-13T11:46:22.206Z,8.88
2022-11-13T11:48:50.084Z,9.27
2022-11-13T11:51:38.894Z,9.20
2022-11-13T11:54:11.990Z,10.70
2022-11-13T11:56:47.589Z,10.30
2022-11-13T11:59:21.980Z,11.27
2022-11-13T12:02:15.320Z,10.13
2022-11-13T12:05:01.022Z,10.80
2022-11-13T12:07:33.506Z,9.15
2022-11-13T12:10:25.122Z,9.10
2022-11-13T12:12:58.446Z,9.65
2022-11-13T12:15:35.330Z,8.75
2022-11-13T12:18:06.681Z,9.88
2022-11-13T12:20:42.437Z,8.98
2022-11-13T12:23:09.488Z,9.70
2022-11-13T12:25:39.453Z,9.10
2022-11-13T12:28:21.341Z,9.40
2022-11-13T12:30:55.251Z,9.43
2022-11-13T12:35:51.529Z,8.68
2022-11-13T12:38:24.788Z,9.25
2022-11-13T12:40:56.078Z,9.10
2022-11-13T12:43:55.406Z,9.10
2022-11-13T12:46:22.654Z,9.13
2022-11-13T12:48:49.797Z,9.02
2022-11-13T12:51:18.022Z,8.27
2022-11-13T12:53:52.549Z,7.85
2022-11-13T12:56:28.323Z,8.73
2022-11-13T12:59:28.727Z,9.20
2022-11-13T13:01:49.593Z,9.13
2022-11-13T13:04:28.662Z,9.20
2022-11-13T13:07:07.752Z,9.50
2022-11-13T13:09:50.923Z,8.77
2022-11-13T13:12:33.424Z,8.02
2022-11-13T13:15:12.783Z,8.13
2022-11-13T13:17:40.975Z,8.45
2022-11-13T13:20:28.071Z,7.78
2022-11-13T13:22:56.448Z,8.02
2022-11-13T13:25:23.699Z,8.82
2022-11-13T13:27:58.406Z,8.02
2022-11-13T13:30:26.387Z,7.82
2022-11-13T13:33:20.943Z,7.80
2022-11-13T13:35:57.170Z,8.18
2022-11-13T13:38:33.641Z,8.63
2022-11-13T13:41:19.257Z,7.72
2022-11-13T13:44:00.131Z,7.47
2022-11-13T13:46:30.049Z,7.45
2022-11-13T13:49:02.723Z,8.18
2022-11-13T13:51:35.991Z,8.10
2022-11-13T13:54:06.515Z,7.88
2022-11-13T13:56:36.280Z,7.60
2022-11-13T13:59:03.617Z,8.20
2022-11-13T14:01:34.345Z,7.65
2022-11-13T14:04:27.606Z,7.93
2022-11-13T14:06:56.669Z,7.53
2022-11-13T14:09:32.810Z,7.35
2022-11-13T14:12:09.243Z,8.75
2022-11-13T14:14:39.349Z,7.30
2022-11-13T14:17:07.065Z,7.50
2022-11-13T14:19:34.136Z,8.52
2022-11-13T14:22:02.442Z,8.05
2022-11-13T14:24:34.323Z,8.52
2022-11-13T14:27:04.364Z,8.93
2022-11-13T14:29:48.470Z,8.48
2022-11-13T14:32:26.303Z,8.90
2022-11-13T14:34:54.493Z,8.98
2022-11-13T14:37:24.384Z,8.85
2022-11-13T14:39:51.970Z,9.75
2022-11-13T14:42:45.768Z,8.57
2022-11-13T14:45:18.998Z,9.80
2022-11-13T14:47:56.346Z,9.60
2022-11-13T14:50:27.851Z,8.32
2022-11-13T14:53:08.559Z,8.55
2022-11-13T14:55:50.007Z,9.52
2022-11-13T14:58:30.766Z,8.82
2022-11-13T15:00:59.043Z,11.73
2022-11-13T15:03:27.610Z,21.25
2022-11-13T15:05:54.673Z,29.85
2022-11-13T15:08:21.389Z,9.73
2022-11-13T15:10:48.447Z,39.42
2022-11-13T15:13:17.553Z,30.35
2022-11-13T15:15:44.220Z,11.23
2022-11-13T15:18:19.304Z,10.65
2022-11-13T15:20:46.057Z,11.43
2022-11-13T15:23:16.554Z,8.70
2022-11-13T15:25:43.260Z,10.82
2022-11-13T15:28:10.212Z,9.27
2022-11-13T15:30:36.959Z,9.55
2022-11-13T15:33:12.193Z,9.38
2022-11-13T15:35:38.813Z,9.57
2022-11-13T15:38:06.010Z,8.50
2022-11-13T15:40:32.898Z,10.23
2022-11-13T15:43:01.187Z,10.85
2022-11-13T15:45:27.917Z,10.40
2022-11-13T15:47:54.480Z,10.82
2022-11-13T15:50:21.156Z,10.68
2022-11-13T15:52:50.683Z,10.52
2022-11-13T15:55:28.755Z,8.38
2022-11-13T15:57:55.805Z,9.15
2022-11-13T16:00:27.901Z,10.07
2022-11-13T16:02:56.339Z,9.05
2022-11-13T16:05:28.968Z,11.00
2022-11-13T16:07:56.715Z,9.77
2022-11-13T16:10:25.137Z,11.40
2022-11-13T16:12:52.447Z,10.85
2022-11-13T16:15:19.658Z,9.25
2022-11-13T16:17:55.617Z,10.77
2022-11-13T16:20:22.348Z,11.35
2022-11-13T16:22:49.114Z,10.18
2022-11-13T16:25:17.965Z,11.55
2022-11-13T16:27:45.353Z,11.13
2022-11-13T16:30:16.829Z,10.43
2022-11-13T16:32:43.879Z,11.25
2022-11-13T16:35:14.908Z,12.57
2022-11-13T16:37:42.154Z,11.20
2022-11-13T16:40:18.051Z,12.57
2022-11-13T16:42:45.184Z,13.20
2022-11-13T16:45:12.179Z,13.82
2022-11-13T16:47:39.172Z,14.57
2022-11-13T16:50:12.748Z,15.82
2022-11-13T16:55:08.326Z,18.52
2022-11-13T16:57:35.338Z,17.02
2022-11-13T17:00:02.491Z,16.02
2022-11-13T17:02:29.530Z,16.30
2022-11-13T17:04:56.685Z,15.57
2022-11-13T17:07:23.923Z,15.65
2022-11-13T17:10:09.957Z,16.98
2022-11-13T17:12:38.738Z,15.60
2022-11-13T17:15:06.036Z,16.55
2022-11-13T17:17:33.096Z,16.77
2022-11-13T17:20:00.180Z,15.85
2022-11-13T17:22:27.151Z,18.73
2022-11-13T17:24:54.347Z,16.48
2022-11-13T17:27:21.364Z,17.50
2022-11-13T17:29:48.388Z,17.95
2022-11-13T17:32:16.478Z,14.80
2022-11-13T17:34:43.894Z,16.08
2022-11-13T17:37:10.941Z,15.63
2022-11-13T17:39:37.977Z,15.88
2022-11-13T17:42:05.106Z,14.88
2022-11-13T17:44:32.247Z,14.98
2022-11-13T17:46:59.269Z,14.23
2022-11-13T17:49:26.328Z,16.73
2022-11-13T17:51:53.335Z,17.90
2022-11-13T17:54:20.403Z,15.75
2022-11-13T17:56:47.475Z,16.63
2022-11-13T17:59:14.601Z,15.77
2022-11-13T18:01:41.688Z,15.38
2022-11-13T18:04:09.054Z,14.25
2022-11-13T18:06:36.113Z,13.75
2022-11-13T18:09:03.131Z,14.75
2022-11-13T18:11:30.578Z,15.60
2022-11-13T18:13:57.632Z,15.02
2022-11-13T18:16:26.878Z,14.30
2022-11-13T18:18:55.661Z,15.25
2022-11-13T18:21:27.486Z,14.13
2022-11-13T18:23:58.535Z,14.65
2022-11-13T18:26:25.804Z,13.70
2022-11-13T18:28:52.797Z,13.48
2022-11-13T18:31:20.425Z,13.10
2022-11-13T18:33:47.665Z,14.15
2022-11-13T18:36:14.980Z,13.80
2022-11-13T18:38:43.339Z,13.02
2022-11-13T18:41:15.324Z,14.45
2022-11-13T18:43:49.953Z,14.00
2022-11-13T18:46:17.700Z,12.50
2022-11-13T18:48:45.325Z,13.52
2022-11-13T18:51:16.440Z,14.13
2022-11-13T18:53:45.448Z,12.93
2022-11-13T18:56:14.024Z,13.23
2022-11-13T18:58:41.961Z,13.10
2022-11-13T19:01:10.334Z,13.60
2022-11-13T19:03:37.553Z,13.73
2022-11-13T19:06:09.850Z,14.18
2022-11-13T19:08:40.698Z,13.20
2022-11-13T19:11:18.028Z,12.88
2022-11-13T19:13:46.909Z,14.13
2022-11-13T19:16:15.421Z,14.40
2022-11-13T19:18:43.645Z,13.73
2022-11-13T19:21:13.491Z,14.45
2022-11-13T19:23:40.456Z,14.23
2022-11-13T19:26:09.105Z,13.02
2022-11-13T19:28:36.632Z,14.15
2022-11-13T19:31:12.648Z,12.38
2022-11-13T19:33:40.047Z,12.38
2022-11-13T19:36:12.230Z,12.80
2022-11-13T19:38:39.565Z,11.73
2022-11-13T19:41:07.210Z,11.35
2022-11-13T19:43:35.004Z,10.70
2022-11-13T19:46:06.054Z,10.65
2022-11-13T19:48:33.186Z,9.48
2022-11-13T19:51:10.036Z,11.18
2022-11-13T19:53:37.939Z,11.57
2022-11-13T19:56:05.571Z,12.45
2022-11-13T19:58:32.834Z,11.57
2022-11-13T20:00:59.489Z,12.77
2022-11-13T20:03:27.325Z,13.07
2022-11-13T20:05:55.680Z,12.43
2022-11-13T20:08:26.806Z,12.68
2022-11-13T20:11:00.169Z,11.32
2022-11-13T20:13:26.838Z,13.93
2022-11-13T20:15:54.694Z,12.80
2022-11-13T20:18:21.332Z,12.85
2022-11-13T20:20:54.490Z,12.80
2022-11-13T20:23:21.596Z,12.10
2022-11-13T20:25:56.207Z,11.70
2022-11-13T20:28:24.002Z,13.80
2022-11-13T20:30:51.486Z,12.80
2022-11-13T20:33:22.311Z,12.43
2022-11-13T20:35:55.514Z,12.95
2022-11-13T20:38:22.160Z,14.00
2022-11-13T20:40:48.849Z,14.95
2022-11-13T20:43:15.457Z,14.63
2022-11-13T20:45:42.169Z,15.93
2022-11-13T20:48:08.787Z,14.35
2022-11-13T20:50:36.496Z,15.23
2022-11-13T20:53:03.721Z,14.98
2022-11-13T20:55:30.649Z,15.95
2022-11-13T20:57:57.836Z,13.98
2022-11-13T21:00:24.498Z,14.73
2022-11-13T21:02:51.884Z,15.30
2022-11-13T21:05:18.553Z,14.93
2022-11-13T21:07:45.158Z,15.30
2022-11-13T21:10:11.787Z,15.35
2022-11-13T21:12:38.370Z,16.13
2022-11-13T21:15:05.477Z,15.63
2022-11-13T21:17:32.141Z,16.17
2022-11-13T21:19:58.749Z,16.50
2022-11-13T21:22:25.340Z,16.25
2022-11-13T21:24:51.992Z,16.25
2022-11-13T21:27:18.602Z,16.13
2022-11-13T21:29:45.188Z,16.30
2022-11-13T21:32:11.866Z,17.15
2022-11-13T21:34:38.450Z,16.67
2022-11-13T21:37:05.115Z,15.93
2022-11-13T21:39:32.764Z,16.17
2022-11-13T21:41:59.367Z,16.27
2022-11-13T21:44:25.966Z,17.90
2022-11-13T21:46:52.596Z,17.73
2022-11-13T21:49:19.298Z,17.15
2022-11-13T21:51:45.888Z,16.10
2022-11-13T21:54:12.542Z,15.63
2022-11-13T21:56:39.360Z,17.27
2022-11-13T21:59:06.961Z,17.10
2022-11-13T22:01:38.377Z,16.33
2022-11-13T22:04:06.401Z,17.85
2022-11-13T22:06:36.234Z,16.30
2022-11-13T22:09:12.922Z,16.83
2022-11-13T22:11:39.789Z,16.15
2022-11-13T22:14:06.793Z,16.13
2022-11-13T22:16:40.953Z,16.73
2022-11-13T22:19:12.277Z,16.15
2022-11-13T22:21:39.955Z,16.65
2022-11-13T22:24:07.477Z,16.98
2022-11-13T22:26:38.121Z,16.58
2022-11-13T22:29:04.843Z,15.57
2022-11-13T22:31:32.565Z,15.13
2022-11-13T22:33:59.333Z,15.90
2022-11-13T22:36:34.464Z,15.88
2022-11-13T22:39:01.690Z,15.95
2022-11-13T22:41:31.323Z,14.35
2022-11-13T22:44:00.571Z,15.23
2022-11-13T22:46:29.925Z,15.73
2022-11-13T22:48:57.909Z,15.27
2022-11-13T22:51:27.582Z,15.05
2022-11-13T22:54:02.178Z,15.20
2022-11-13T22:56:31.458Z,14.88
2022-11-13T22:59:00.366Z,15.48
2022-11-13T23:01:28.954Z,15.85
2022-11-13T23:03:57.631Z,15.38
2022-11-13T23:06:26.655Z,15.45
2022-11-13T23:08:53.647Z,14.60
2022-11-13T23:11:23.845Z,15.65
2022-11-13T23:13:53.242Z,14.85
2022-11-13T23:16:21.230Z,14.43
2022-11-13T23:18:48.284Z,14.82
2022-11-13T23:21:15.302Z,14.40
2022-11-13T23:23:42.167Z,15.88
2022-11-13T23:26:10.343Z,13.30
2022-11-13T23:28:37.269Z,12.40
2022-11-13T23:31:04.544Z,12.73
2022-11-13T23:33:31.856Z,12.73
2022-11-13T23:35:58.833Z,12.23
2022-11-13T23:38:25.525Z,13.52
2022-11-13T23:40:56.347Z,12.90
2022-11-13T23:43:36.475Z,14.70
2022-11-13T23:46:10.615Z,13.43
2022-11-13T23:48:39.799Z,12.73
2022-11-13T23:51:06.987Z,13.35
2022-11-13T23:53:33.688Z,13.35
2022-11-13T23:56:00.402Z,11.98
2022-11-13T23:58:27.489Z,14.25
